Terminal Aerodrome Forecast
Issued by NWS Sterling, VA

Current Version | Previous Version | Text Only | Print | Product List | Glossary Off
Versions: 1 2 3 4 5 6 7 8 9 10 11 12 13 14 15 16 17 18 19

735
FTUS41 KLWX 300908 AAA
TAFMRB
TAF AMD
KMRB 300908Z 3009/3106 00000KT 5SM BR BKN090
     FM301300 18006KT P6SM -SHRA OVC035
     FM301600 16004KT P6SM VCTS BKN040CB
     FM302100 15005KT 5SM SHRA VCTS OVC035CB
     FM310000 VRB03KT 6SM -SHRA VCTS BKN040CB=

USA.gov is the U.S. government's official web portal to all federal, state and local government web resources and services.